Tullahassee, Oklahoma
Current Conditions -  °F | °C
As of 2:53 AM on Monday 20 Oct 2014 (Local Time) from KMKO Reporting Station
Clear Clear  
Wind Chill: 56°   Ceiling: Unl
Heat Index: 56°   Visibility: 10mi
Dew Point: 51°   Wind: 5mph
Humidity: 84%   Direction: 130°SE
Pressure: 30.06"   Gusts: NA
Location:  35.84°N, 95.44°W
Report Text: KMKO 200753Z AUTO 13004KT 10SM CLR 13/11 A3006 RMK AO2 SLP176 T01330106
Loading
Personal Weather Stations






























Interactive Weather Map
Tropical Storm Tracking
New forecast layout! Learn more

10-Day Weather Forecast

Advertisements
Track Severe Weather on mobile